Terminal Aerodrome Forecast
Issued by NWS

Home | Current Version | Previous Version | Text Only | Print | Product List | Glossary On
Versions: 1 2 3 4 5 6 7 8 9 10 11 12 13
000
FTUS44 KOUN 281124
TAFPNC
TAF
KPNC 281124Z 2812/2912 14016KT P6SM BKN070
     FM281400 21012KT P6SM BKN150
     FM281600 36006KT P6SM BKN120
     FM290000 09009KT P6SM OVC050 PROB30 2902/2905 2SM TSRA OVC035CB
     FM290500 04015KT 3SM TSRA OVC025CB
     FM291100 01018KT 5SM SHRA OVC025=

USA.gov is the U.S. government's official web portal to all federal, state and local government web resources and services.